Etusivu
METAR-TAF:

METAR-TAF

Lentoasemat :

San Diego / North Island, Kalifornia, Yhdysvallat

Leveyspiiri: 32-41-27N, Pituuspiiri: 117-12-32W, korkeus merenpinnasta: 7 m

Tämänhetkinen sää

Tämä raportti tehtiin 20 minuuttia sitten, kello 11.34 UTC
tyyntä
Lämpötila 10°C
Kosteus 87%
Ilmanpaine 1019 hPa
Näkyvyys: 3.2 km
selkeää

METAR: KNZY 231134Z 00000KT 2SM CLR 10/08 A3010 RMK AO2 T01000078 $

Aika: 03:54 (11:54 UTC)

Sääennuste

Ennuste voimassa 23. päivästä klo 07 UTC - 24. päivään klo 07 UTC
Tuuli 6 kn eri suunnista
Näkyvyys 10 km tai enemmän
Hajanaisia pilviä 2000 ft:n korkeudessa
Ajoittain
23. päivästä klo 10 UTC - 23. päivään klo 16 UTC
Näkyvyys: 8000 m
Hajonneita pilviä 2000 ft:n korkeudessa
utua
From 23. päivästä klo 2000 UTC
Tuuli 9 kn luoteesta
Näkyvyys 10 km tai enemmän
Muutamia pilviä 25000 ft:n korkeudessa

TAF: KNZY 2307/2407 VRB06KT 9999 SCT020 QNH3001INS TEMPO 2310/2316 8000 BR BKN020 FM232000 32009KT 9999 FEW250 QNH2999INS T10/2315Z T20/2321Z FS30164

Säähavainnot ja -ennusteet yli 4000 lentoasemalta (METAR- ja TAF-raportit).

Käytössä olevat sääasemat on merkitty karttaan keltaisilla ja punaisilla pisteillä.

Aseta hiiri pisteen päälle nähdäksesi sääaseman nimen.

Klikkaa sitten nähdäksesi säähavainnot ja -ennusteet.

Kartan vaihtaminen: klikkaa mustalla rastilla varustettuja vihreitä pisteitä, niin voit zoomata sisään; viivalla varustettua vihreää pistettä, niin voit zoomata ulos tai vihreitä nuolia, niin pääset viereisille kartoille.


METAR-TAF: